Time;durP1;ratioP1;P1;durP2;ratioP2;P2;SDS_P1;SDS_P2;PMS_P1;PMS_P2;Temp;Humidity;BMP_temperature;BMP_pressure;BME280_temperature;BME280_humidity;BME280_pressure;Samples;Min_cycle;Max_cycle;Signal;HPM_P1;HPM_P2
2023/06/07 00:00:34;;;;;;;9.70;4.13;;;;;;;;;;5059211;28;20966;-78
2023/06/07 00:03:09;;;;;;;10.25;4.00;;;;;;;;;;5058754;28;20423;-77
2023/06/07 00:05:43;;;;;;;13.00;4.30;;;;;;;;;;5056748;28;20902;-78
2023/06/07 00:08:17;;;;;;;9.35;4.32;;;;;;;;;;5060384;28;20428;-77
2023/06/07 00:10:45;;;;;;;8.45;3.88;;;;;;;;;;5061854;28;20771;-76
2023/06/07 00:13:13;;;;;;;8.50;4.00;;;;;;;;;;5059128;28;20771;-76
2023/06/07 00:15:41;;;;;;;11.52;4.28;;;;;;;;;;5058629;28;20417;-76
2023/06/07 00:18:10;;;;;;;8.73;4.18;;;;;;;;;;5060828;28;20425;-76
2023/06/07 00:20:37;;;;;;;9.68;4.30;;;;;;;;;;5056416;28;20424;-76
2023/06/07 00:23:13;;;;;;;8.57;4.43;;;;;;;;;;5058138;28;20434;-78
2023/06/07 00:25:41;;;;;;;9.38;3.83;;;;;;;;;;5059122;28;20411;-78
2023/06/07 00:28:14;;;;;;;8.70;4.18;;;;;;;;;;5060785;28;20442;-76
2023/06/07 00:30:42;;;;;;;8.68;4.25;;;;;;;;;;5058189;28;20902;-76
2023/06/07 00:33:10;;;;;;;8.18;3.92;;;;;;;;;;5059439;28;20417;-76
2023/06/07 00:35:38;;;;;;;9.90;4.10;;;;;;;;;;5057381;28;20419;-76
2023/06/07 00:38:08;;;;;;;9.30;4.15;;;;;;;;;;5061232;28;20425;-78
2023/06/07 00:40:42;;;;;;;9.98;4.22;;;;;;;;;;5059016;28;20415;-77
2023/06/07 00:43:15;;;;;;;9.10;4.35;;;;;;;;;;5058682;28;20422;-76
2023/06/07 00:45:48;;;;;;;10.13;3.80;;;;;;;;;;5061596;28;20757;-75
2023/06/07 00:48:21;;;;;;;12.75;4.20;;;;;;;;;;5062807;28;20432;-76
2023/06/07 00:50:55;;;;;;;7.55;3.65;;;;;;;;;;5058260;28;20425;-75
2023/06/07 00:53:23;;;;;;;11.45;4.25;;;;;;;;;;5060330;28;20917;-75
2023/06/07 00:55:57;;;;;;;8.95;4.20;;;;;;;;;;5060831;28;20438;-77
2023/06/07 00:58:25;;;;;;;9.17;4.00;;;;;;;;;;5059245;28;20413;-76
2023/06/07 01:00:53;;;;;;;9.95;3.97;;;;;;;;;;5071258;28;20421;-78
2023/06/07 01:03:26;;;;;;;9.63;4.20;;;;;;;;;;5055056;28;20889;-77
2023/06/07 01:05:57;;;;;;;7.95;3.97;;;;;;;;;;5067247;28;20442;-75
2023/06/07 01:08:26;;;;;;;10.35;4.10;;;;;;;;;;5063771;28;20432;-77
2023/06/07 01:10:54;;;;;;;9.15;3.85;;;;;;;;;;5056062;28;20417;-76
2023/06/07 01:13:30;;;;;;;10.15;4.47;;;;;;;;;;5060315;28;20419;-76
2023/06/07 01:16:03;;;;;;;11.27;4.55;;;;;;;;;;5056427;28;20420;-76
2023/06/07 01:18:31;;;;;;;9.68;4.40;;;;;;;;;;5062607;28;20415;-77
2023/06/07 01:21:04;;;;;;;9.98;4.30;;;;;;;;;;5057770;28;20928;-77
2023/06/07 01:23:38;;;;;;;11.57;4.50;;;;;;;;;;5056304;28;20422;-75
2023/06/07 01:26:07;;;;;;;10.15;3.92;;;;;;;;;;5056231;28;20412;-76
2023/06/07 01:28:35;;;;;;;9.57;4.37;;;;;;;;;;5058879;28;20432;-77
2023/06/07 01:31:03;;;;;;;10.40;4.53;;;;;;;;;;5061038;28;20888;-77
2023/06/07 01:33:33;;;;;;;10.90;4.90;;;;;;;;;;5063313;28;20423;-78
2023/06/07 01:36:06;;;;;;;11.98;4.28;;;;;;;;;;5061467;28;20436;-79
2023/06/07 01:38:41;;;;;;;10.57;4.10;;;;;;;;;;5054554;28;20426;-78
2023/06/07 01:41:15;;;;;;;11.80;4.50;;;;;;;;;;5057344;28;20427;-78
2023/06/07 01:43:48;;;;;;;10.15;4.55;;;;;;;;;;5059550;28;20423;-78
2023/06/07 01:46:21;;;;;;;12.00;4.65;;;;;;;;;;5061856;28;20423;-76
2023/06/07 01:48:49;;;;;;;12.90;4.68;;;;;;;;;;5056045;28;20426;-77
2023/06/07 01:51:22;;;;;;;11.13;4.28;;;;;;;;;;5057701;28;20428;-79
2023/06/07 01:53:52;;;;;;;15.25;4.88;;;;;;;;;;5059725;28;20415;-76
2023/06/07 01:56:25;;;;;;;9.80;4.53;;;;;;;;;;5062446;28;20405;-78
2023/06/07 01:58:58;;;;;;;11.35;4.50;;;;;;;;;;5059507;28;20405;-79
2023/06/07 02:01:30;;;;;;;13.02;4.75;;;;;;;;;;5052383;28;20425;-76
2023/06/07 02:04:00;;;;;;;12.27;4.88;;;;;;;;;;5062070;28;20420;-78
2023/06/07 02:06:30;;;;;;;13.07;4.65;;;;;;;;;;5055422;28;20424;-77
2023/06/07 02:09:02;;;;;;;12.55;4.32;;;;;;;;;;5055557;28;20423;-78
2023/06/07 02:11:31;;;;;;;10.00;4.35;;;;;;;;;;5060035;28;20412;-78
2023/06/07 02:14:04;;;;;;;11.77;4.60;;;;;;;;;;5057553;28;20786;-79
2023/06/07 02:16:35;;;;;;;10.65;4.50;;;;;;;;;;5056014;28;20417;-77
2023/06/07 02:19:12;;;;;;;12.15;4.70;;;;;;;;;;5064218;28;20412;-77
2023/06/07 02:21:49;;;;;;;12.02;4.88;;;;;;;;;;5057505;28;20467;-78
2023/06/07 02:24:19;;;;;;;15.30;5.03;;;;;;;;;;5057391;28;20412;-77
2023/06/07 02:26:53;;;;;;;13.23;4.33;;;;;;;;;;5060176;28;20890;-77
2023/06/07 02:29:26;;;;;;;15.85;5.00;;;;;;;;;;5064536;28;20456;-77
2023/06/07 02:32:00;;;;;;;12.57;5.15;;;;;;;;;;5057207;28;20945;-78
2023/06/07 02:34:29;;;;;;;14.00;5.30;;;;;;;;;;5060500;28;20404;-79
2023/06/07 02:36:58;;;;;;;17.23;5.20;;;;;;;;;;5059273;28;20921;-77
2023/06/07 02:39:32;;;;;;;14.30;4.70;;;;;;;;;;5063293;28;20412;-78
2023/06/07 02:41:59;;;;;;;11.90;4.93;;;;;;;;;;5058145;28;20440;-77
2023/06/07 02:44:28;;;;;;;14.85;4.65;;;;;;;;;;5061353;28;20884;-76
2023/06/07 02:47:00;;;;;;;13.10;5.00;;;;;;;;;;5059384;28;20413;-79
2023/06/07 02:49:28;;;;;;;16.33;5.07;;;;;;;;;;5063504;28;20895;-76
2023/06/07 02:51:56;;;;;;;14.18;5.22;;;;;;;;;;5057860;28;20425;-77
2023/06/07 02:54:24;;;;;;;15.00;5.15;;;;;;;;;;5057861;28;20898;-76
2023/06/07 02:56:53;;;;;;;15.68;4.90;;;;;;;;;;5056447;28;20447;-78
2023/06/07 02:59:26;;;;;;;16.77;5.30;;;;;;;;;;5054130;28;20822;-78
2023/06/07 03:01:54;;;;;;;15.27;4.80;;;;;;;;;;5064718;28;20416;-79
2023/06/07 03:04:26;;;;;;;13.00;4.97;;;;;;;;;;5064987;28;20428;-78
2023/06/07 03:07:02;;;;;;;17.63;5.15;;;;;;;;;;5065809;28;20420;-78
2023/06/07 03:09:39;;;;;;;15.63;5.05;;;;;;;;;;5053388;28;20413;-79
2023/06/07 03:12:10;;;;;;;12.95;4.60;;;;;;;;;;5057943;28;20420;-77
2023/06/07 03:14:44;;;;;;;15.17;5.03;;;;;;;;;;5081440;28;20436;-79
2023/06/07 03:17:17;;;;;;;14.77;4.70;;;;;;;;;;5060385;28;20758;-78
2023/06/07 03:19:55;;;;;;;16.10;4.83;;;;;;;;;;5061330;28;20424;-77
2023/06/07 03:22:30;;;;;;;13.65;4.95;;;;;;;;;;5064254;28;20404;-78
2023/06/07 03:24:57;;;;;;;14.05;4.88;;;;;;;;;;5062036;28;20409;-77
2023/06/07 03:27:29;;;;;;;14.15;4.72;;;;;;;;;;5061466;28;20425;-79
2023/06/07 03:30:02;;;;;;;20.73;4.90;;;;;;;;;;5056104;28;20440;-78
2023/06/07 03:32:40;;;;;;;16.23;4.80;;;;;;;;;;5063946;28;20421;-77
2023/06/07 03:35:08;;;;;;;14.32;4.65;;;;;;;;;;5060052;28;20429;-77
2023/06/07 03:37:42;;;;;;;14.80;4.80;;;;;;;;;;5062710;28;20436;-79
2023/06/07 03:40:11;;;;;;;16.33;5.00;;;;;;;;;;5062231;28;20417;-76
2023/06/07 03:42:45;;;;;;;17.77;5.13;;;;;;;;;;5075245;28;20409;-77
2023/06/07 03:45:13;;;;;;;13.68;4.60;;;;;;;;;;5066755;28;20439;-78
2023/06/07 03:47:40;;;;;;;16.98;4.65;;;;;;;;;;5058810;28;20415;-78
2023/06/07 03:50:14;;;;;;;20.43;5.17;;;;;;;;;;5060919;28;20792;-78
2023/06/07 03:52:42;;;;;;;12.35;4.82;;;;;;;;;;5065408;28;20427;-76
2023/06/07 03:55:19;;;;;;;14.90;4.75;;;;;;;;;;5067598;28;20434;-77
2023/06/07 03:57:49;;;;;;;17.85;4.88;;;;;;;;;;5061175;28;20757;-78
2023/06/07 04:00:22;;;;;;;18.25;4.97;;;;;;;;;;5066304;28;20409;-80
2023/06/07 04:02:56;;;;;;;15.75;4.90;;;;;;;;;;5060355;28;20419;-78
2023/06/07 04:05:29;;;;;;;16.25;4.60;;;;;;;;;;5061948;28;20423;-76
2023/06/07 04:07:59;;;;;;;15.68;4.57;;;;;;;;;;5064508;28;20418;-77
2023/06/07 04:10:32;;;;;;;12.75;4.45;;;;;;;;;;5058148;28;20904;-80
2023/06/07 04:13:01;;;;;;;18.40;4.80;;;;;;;;;;5059132;28;20428;-77
2023/06/07 04:15:30;;;;;;;14.52;5.00;;;;;;;;;;5063492;28;20424;-77
2023/06/07 04:17:58;;;;;;;15.70;4.72;;;;;;;;;;5062225;28;20433;-77
2023/06/07 04:20:26;;;;;;;15.43;4.43;;;;;;;;;;5063191;28;20917;-78
2023/06/07 04:23:00;;;;;;;14.57;4.60;;;;;;;;;;5055971;28;20425;-77
2023/06/07 04:25:31;;;;;;;18.55;4.88;;;;;;;;;;5066517;28;20431;-77
2023/06/07 04:28:02;;;;;;;18.08;5.05;;;;;;;;;;5060951;28;20416;-77
2023/06/07 04:30:36;;;;;;;18.42;4.93;;;;;;;;;;5066375;28;21125;-79
2023/06/07 04:33:09;;;;;;;18.35;5.03;;;;;;;;;;5065781;28;20425;-78
2023/06/07 04:35:42;;;;;;;16.95;4.35;;;;;;;;;;5061007;28;20424;-79
2023/06/07 04:38:12;;;;;;;14.40;4.32;;;;;;;;;;5061528;28;20440;-77
2023/06/07 04:40:48;;;;;;;13.68;4.50;;;;;;;;;;5068939;28;21147;-76
2023/06/07 04:43:23;;;;;;;18.73;4.70;;;;;;;;;;5059588;28;20866;-77
2023/06/07 04:45:55;;;;;;;13.65;4.38;;;;;;;;;;5058262;28;20406;-77
2023/06/07 04:48:31;;;;;;;18.77;4.60;;;;;;;;;;5067399;28;20412;-78
2023/06/07 04:51:03;;;;;;;15.13;4.65;;;;;;;;;;5066497;28;20777;-78
2023/06/07 04:53:36;;;;;;;18.63;4.35;;;;;;;;;;5064481;28;20446;-78
2023/06/07 04:56:05;;;;;;;13.90;4.40;;;;;;;;;;5056764;28;20428;-78
2023/06/07 04:58:36;;;;;;;14.20;4.47;;;;;;;;;;5063917;28;20423;-77
2023/06/07 05:01:05;;;;;;;15.68;4.20;;;;;;;;;;5050598;28;20913;-77
2023/06/07 05:03:37;;;;;;;15.52;4.43;;;;;;;;;;5055823;28;20956;-77
2023/06/07 05:06:04;;;;;;;18.73;4.95;;;;;;;;;;5060843;28;20402;-79
2023/06/07 05:08:38;;;;;;;17.13;4.50;;;;;;;;;;5052565;28;20429;-77
2023/06/07 05:11:12;;;;;;;15.73;4.30;;;;;;;;;;5059417;28;20895;-79
2023/06/07 05:13:46;;;;;;;14.23;3.93;;;;;;;;;;5059667;28;20434;-79
2023/06/07 05:16:16;;;;;;;12.45;3.63;;;;;;;;;;5061199;28;20435;-78
2023/06/07 05:18:49;;;;;;;15.43;4.10;;;;;;;;;;5056123;28;20433;-78
2023/06/07 05:21:19;;;;;;;14.13;4.25;;;;;;;;;;5065261;28;20437;-77
2023/06/07 05:23:47;;;;;;;16.40;4.13;;;;;;;;;;5054125;28;20432;-78
2023/06/07 05:26:20;;;;;;;12.68;4.10;;;;;;;;;;5065947;28;20417;-78
2023/06/07 05:28:50;;;;;;;14.07;3.67;;;;;;;;;;5058623;28;20428;-77
2023/06/07 05:31:18;;;;;;;10.77;3.53;;;;;;;;;;5059143;28;20885;-80
2023/06/07 05:33:51;;;;;;;14.90;4.10;;;;;;;;;;5060379;28;20420;-78
2023/06/07 05:36:21;;;;;;;14.18;3.83;;;;;;;;;;5059743;28;20420;-79
2023/06/07 05:38:55;;;;;;;13.45;3.88;;;;;;;;;;5065466;28;20790;-79
2023/06/07 05:41:22;;;;;;;13.73;3.97;;;;;;;;;;5057883;28;20440;-79
2023/06/07 05:43:57;;;;;;;9.98;3.72;;;;;;;;;;5057275;28;20429;-78
2023/06/07 05:46:30;;;;;;;14.02;3.92;;;;;;;;;;5065368;28;20416;-77
2023/06/07 05:49:03;;;;;;;13.23;3.80;;;;;;;;;;5066197;28;20423;-76
2023/06/07 05:51:31;;;;;;;16.80;4.40;;;;;;;;;;5065773;28;20424;-80
2023/06/07 05:53:59;;;;;;;14.63;3.95;;;;;;;;;;5052587;28;20469;-78
2023/06/07 05:56:29;;;;;;;13.65;3.55;;;;;;;;;;5053252;28;20428;-77
2023/06/07 05:59:03;;;;;;;14.10;4.03;;;;;;;;;;5057637;28;20956;-78
2023/06/07 06:01:30;;;;;;;16.17;3.97;;;;;;;;;;5064153;28;20906;-78
2023/06/07 06:03:58;;;;;;;11.82;3.83;;;;;;;;;;5055375;28;20761;-78
2023/06/07 06:06:31;;;;;;;12.55;3.60;;;;;;;;;;5056183;28;20924;-78
2023/06/07 06:08:59;;;;;;;14.13;4.03;;;;;;;;;;5052405;28;20901;-80
2023/06/07 06:11:31;;;;;;;13.40;4.00;;;;;;;;;;5058068;28;20426;-78
2023/06/07 06:14:06;;;;;;;14.75;4.28;;;;;;;;;;5061824;28;20433;-78
2023/06/07 06:16:34;;;;;;;14.65;3.97;;;;;;;;;;5060567;28;20427;-79
2023/06/07 06:19:01;;;;;;;14.20;3.80;;;;;;;;;;5060311;28;20429;-78
2023/06/07 06:21:34;;;;;;;13.90;3.60;;;;;;;;;;5055338;28;20917;-79
2023/06/07 06:24:07;;;;;;;14.82;3.60;;;;;;;;;;5053102;28;20436;-79
2023/06/07 06:26:35;;;;;;;13.50;3.40;;;;;;;;;;5059203;28;20919;-79
2023/06/07 06:29:03;;;;;;;11.30;3.80;;;;;;;;;;5058572;28;20483;-81
2023/06/07 06:31:32;;;;;;;14.75;3.85;;;;;;;;;;5060375;28;20448;-77
2023/06/07 06:34:00;;;;;;;11.82;3.53;;;;;;;;;;5054636;28;20446;-80
2023/06/07 06:36:33;;;;;;;14.93;3.95;;;;;;;;;;5057266;28;20432;-77
2023/06/07 06:39:03;;;;;;;11.65;3.35;;;;;;;;;;5053827;28;20762;-78
2023/06/07 06:41:36;;;;;;;10.55;3.88;;;;;;;;;;5050732;28;20432;-77
2023/06/07 06:44:05;;;;;;;13.20;3.60;;;;;;;;;;5041750;28;21988;-81
2023/06/07 06:46:35;;;;;;;10.67;3.33;;;;;;;;;;5042341;28;20540;-82
2023/06/07 06:49:08;;;;;;;11.02;3.53;;;;;;;;;;5044284;28;20415;-79
2023/06/07 06:51:35;;;;;;;10.52;3.10;;;;;;;;;;5050364;28;20423;-81
2023/06/07 06:54:08;;;;;;;10.68;3.22;;;;;;;;;;5045218;28;20436;-82
2023/06/07 06:56:36;;;;;;;12.73;3.40;;;;;;;;;;5052204;28;20407;-82
2023/06/07 06:59:05;;;;;;;13.00;3.63;;;;;;;;;;5040994;28;21205;-83
2023/06/07 07:01:46;;;;;;;13.43;3.70;;;;;;;;;;5042574;28;20418;-80
2023/06/07 07:04:19;;;;;;;12.85;3.50;;;;;;;;;;5039262;28;20945;-82
2023/06/07 07:06:47;;;;;;;11.63;3.72;;;;;;;;;;5042670;28;20428;-82
2023/06/07 07:09:16;;;;;;;12.75;3.95;;;;;;;;;;5045105;28;20786;-82
2023/06/07 07:11:48;;;;;;;13.30;3.50;;;;;;;;;;5043146;28;20442;-82
2023/06/07 07:14:21;;;;;;;11.88;3.33;;;;;;;;;;5049967;28;20428;-79
2023/06/07 07:16:50;;;;;;;16.15;4.72;;;;;;;;;;5040755;28;20447;-80
2023/06/07 07:19:18;;;;;;;11.23;3.30;;;;;;;;;;5037206;28;20415;-82
2023/06/07 07:21:46;;;;;;;10.95;3.30;;;;;;;;;;5043725;28;20442;-80
2023/06/07 07:24:14;;;;;;;14.57;3.60;;;;;;;;;;5043108;28;20431;-80
2023/06/07 07:26:41;;;;;;;14.50;3.35;;;;;;;;;;5045064;28;20427;-79
2023/06/07 07:29:09;;;;;;;11.90;4.00;;;;;;;;;;5043476;28;20753;-83
2023/06/07 07:31:42;;;;;;;10.05;3.17;;;;;;;;;;5047760;28;20457;-82
2023/06/07 07:34:16;;;;;;;10.15;3.28;;;;;;;;;;5046866;28;20423;-82
2023/06/07 07:36:44;;;;;;;12.02;3.10;;;;;;;;;;5038713;28;20432;-80
2023/06/07 07:39:12;;;;;;;11.18;3.55;;;;;;;;;;5042515;28;22364;-79
2023/06/07 07:41:41;;;;;;;10.32;3.13;;;;;;;;;;5051936;28;20423;-81
2023/06/07 07:44:13;;;;;;;11.35;3.25;;;;;;;;;;5046082;28;20439;-79
2023/06/07 07:46:41;;;;;;;13.57;3.38;;;;;;;;;;5042337;28;20430;-78
2023/06/07 07:49:09;;;;;;;10.60;2.90;;;;;;;;;;5035176;28;20435;-80
2023/06/07 07:51:38;;;;;;;10.88;3.60;;;;;;;;;;5048941;28;20435;-80
2023/06/07 07:54:08;;;;;;;10.13;3.30;;;;;;;;;;5037293;28;20930;-82
2023/06/07 07:56:35;;;;;;;9.52;3.13;;;;;;;;;;5039820;28;20430;-84
2023/06/07 07:59:03;;;;;;;10.33;3.20;;;;;;;;;;5038796;28;21030;-82
2023/06/07 08:01:31;;;;;;;10.15;3.15;;;;;;;;;;5043061;28;20473;-81
2023/06/07 08:03:59;;;;;;;12.95;3.28;;;;;;;;;;5047285;28;21253;-80
2023/06/07 08:06:27;;;;;;;12.27;3.72;;;;;;;;;;5044468;28;20432;-80
2023/06/07 08:08:56;;;;;;;10.82;3.53;;;;;;;;;;5039193;28;20436;-80
2023/06/07 08:11:29;;;;;;;10.05;3.47;;;;;;;;;;5043160;28;21259;-78
2023/06/07 08:13:57;;;;;;;10.18;3.50;;;;;;;;;;5047572;28;21699;-82
2023/06/07 08:16:30;;;;;;;8.20;3.10;;;;;;;;;;5044391;28;20815;-81
2023/06/07 08:18:58;;;;;;;11.45;3.40;;;;;;;;;;5042591;28;20533;-79
2023/06/07 08:21:26;;;;;;;11.73;3.33;;;;;;;;;;5047201;28;20442;-79
2023/06/07 08:24:00;;;;;;;8.45;3.45;;;;;;;;;;5046081;28;20442;-79
2023/06/07 08:26:28;;;;;;;10.32;3.50;;;;;;;;;;5040491;28;20427;-81
2023/06/07 08:28:56;;;;;;;11.60;3.10;;;;;;;;;;5045479;28;21056;-79
2023/06/07 08:31:29;;;;;;;10.10;3.37;;;;;;;;;;5052337;28;20425;-79
2023/06/07 08:34:02;;;;;;;8.50;3.20;;;;;;;;;;5035895;28;20433;-82
2023/06/07 08:36:30;;;;;;;9.63;3.40;;;;;;;;;;5041627;28;20434;-82
2023/06/07 08:39:04;;;;;;;10.15;3.20;;;;;;;;;;5043150;28;20432;-80
2023/06/07 08:41:39;;;;;;;9.63;3.50;;;;;;;;;;5041509;28;20439;-78
2023/06/07 08:44:06;;;;;;;8.13;3.25;;;;;;;;;;5037081;28;20429;-81
2023/06/07 08:46:34;;;;;;;8.95;3.50;;;;;;;;;;5042506;28;20947;-81
2023/06/07 08:49:08;;;;;;;12.32;3.50;;;;;;;;;;5038351;28;20438;-80
2023/06/07 08:51:36;;;;;;;9.80;3.22;;;;;;;;;;5044291;28;20428;-80
2023/06/07 08:54:11;;;;;;;9.63;3.30;;;;;;;;;;5037353;28;20443;-80
2023/06/07 08:56:45;;;;;;;11.30;3.33;;;;;;;;;;5031230;28;20439;-79
2023/06/07 08:59:19;;;;;;;10.13;3.22;;;;;;;;;;5038660;28;20431;-80
2023/06/07 09:01:48;;;;;;;11.30;3.50;;;;;;;;;;5039338;28;20493;-80
2023/06/07 09:04:18;;;;;;;9.80;3.47;;;;;;;;;;5035782;28;20435;-81
2023/06/07 09:06:51;;;;;;;8.88;3.28;;;;;;;;;;5038786;28;20435;-79
2023/06/07 09:09:25;;;;;;;8.90;3.17;;;;;;;;;;5039948;28;20432;-79
2023/06/07 09:11:53;;;;;;;8.10;3.22;;;;;;;;;;5040378;28;20879;-78
2023/06/07 09:14:22;;;;;;;9.82;3.10;;;;;;;;;;5037379;28;20427;-80
2023/06/07 09:16:54;;;;;;;8.43;3.17;;;;;;;;;;5032946;28;20432;-81
2023/06/07 09:19:30;;;;;;;7.22;3.00;;;;;;;;;;5032676;28;20651;-79
2023/06/07 09:22:03;;;;;;;9.73;3.00;;;;;;;;;;5032523;28;20429;-80
2023/06/07 09:24:33;;;;;;;8.75;3.35;;;;;;;;;;5039720;28;20419;-79
2023/06/07 09:27:02;;;;;;;9.68;3.75;;;;;;;;;;5046711;28;20440;-81
2023/06/07 09:29:39;;;;;;;9.52;3.05;;;;;;;;;;5038565;28;20432;-81
2023/06/07 09:32:17;;;;;;;11.50;3.33;;;;;;;;;;5041057;28;20419;-78
2023/06/07 09:34:52;;;;;;;8.85;3.28;;;;;;;;;;5048929;28;20419;-81
2023/06/07 09:37:40;;;;;;;12.53;3.40;;;;;;;;;;5044029;28;20495;-81
2023/06/07 09:40:10;;;;;;;10.55;3.47;;;;;;;;;;5042428;28;20438;-82
2023/06/07 09:42:38;;;;;;;10.25;3.45;;;;;;;;;;5041925;28;20437;-81
2023/06/07 09:45:11;;;;;;;10.38;4.13;;;;;;;;;;5043610;28;21394;-77
2023/06/07 09:47:44;;;;;;;10.10;3.70;;;;;;;;;;5042937;28;20431;-80
2023/06/07 09:50:13;;;;;;;7.07;3.42;;;;;;;;;;5041173;28;20438;-78
2023/06/07 09:52:55;;;;;;;8.73;3.70;;;;;;;;;;5039787;28;20439;-81
2023/06/07 09:55:28;;;;;;;9.13;3.67;;;;;;;;;;5039248;28;21136;-79
2023/06/07 09:57:57;;;;;;;9.75;3.85;;;;;;;;;;5032768;28;20431;-80
2023/06/07 10:00:25;;;;;;;11.90;3.90;;;;;;;;;;5043219;28;21081;-80
2023/06/07 10:03:06;;;;;;;9.68;3.63;;;;;;;;;;5031463;28;20407;-81
2023/06/07 10:05:39;;;;;;;10.27;3.58;;;;;;;;;;5040952;28;20446;-81
2023/06/07 10:08:07;;;;;;;9.98;3.90;;;;;;;;;;5046193;28;20458;-77
2023/06/07 10:10:38;;;;;;;10.25;3.50;;;;;;;;;;5039262;28;20432;-79
2023/06/07 10:13:06;;;;;;;7.63;3.70;;;;;;;;;;5034775;28;20435;-79
2023/06/07 10:15:35;;;;;;;9.70;3.65;;;;;;;;;;5036575;28;20847;-81
2023/06/07 10:18:06;;;;;;;8.02;3.15;;;;;;;;;;5038541;28;20478;-80
2023/06/07 10:20:40;;;;;;;8.10;3.30;;;;;;;;;;5035333;28;20419;-80
2023/06/07 10:23:11;;;;;;;7.75;3.58;;;;;;;;;;5039709;28;20435;-81
2023/06/07 10:25:48;;;;;;;8.43;3.58;;;;;;;;;;5045236;28;21235;-81
2023/06/07 10:28:17;;;;;;;7.97;3.42;;;;;;;;;;5045897;28;20441;-77
2023/06/07 10:30:48;;;;;;;11.68;5.00;;;;;;;;;;5042290;28;20427;-82
2023/06/07 10:33:17;;;;;;;8.07;3.25;;;;;;;;;;5040689;28;20431;-77
2023/06/07 10:35:45;;;;;;;7.75;3.42;;;;;;;;;;5051559;28;20420;-78
2023/06/07 10:38:13;;;;;;;8.85;3.63;;;;;;;;;;5039738;28;20434;-81
2023/06/07 10:40:43;;;;;;;7.75;3.50;;;;;;;;;;5049353;28;20423;-80
2023/06/07 10:43:12;;;;;;;8.45;3.33;;;;;;;;;;5046068;28;20412;-80
2023/06/07 10:45:40;;;;;;;7.25;3.50;;;;;;;;;;5049243;28;20792;-78
2023/06/07 10:48:34;;;;;;;7.93;3.42;;;;;;;;;;5046201;28;20434;-78
2023/06/07 10:51:07;;;;;;;7.45;3.10;;;;;;;;;;5041839;28;20446;-83
2023/06/07 10:53:50;;;;;;;5.72;3.20;;;;;;;;;;5044478;28;20533;-80
2023/06/07 10:56:28;;;;;;;7.40;3.38;;;;;;;;;;5043603;28;21184;-80
2023/06/07 10:58:59;;;;;;;8.90;3.40;;;;;;;;;;5042344;28;21245;-80
2023/06/07 11:01:26;;;;;;;6.97;3.33;;;;;;;;;;5039292;28;20436;-80
2023/06/07 11:03:54;;;;;;;6.87;3.20;;;;;;;;;;5039827;28;20430;-75
2023/06/07 11:06:27;;;;;;;6.43;3.07;;;;;;;;;;5031209;28;20423;-81
2023/06/07 11:09:12;;;;;;;9.10;3.40;;;;;;;;;;5041113;28;20446;-79
2023/06/07 11:11:44;;;;;;;7.40;3.60;;;;;;;;;;5038069;28;20449;-77
2023/06/07 11:14:18;;;;;;;6.17;3.10;;;;;;;;;;5035255;28;20447;-79
2023/06/07 11:16:51;;;;;;;7.13;3.35;;;;;;;;;;5037999;28;20439;-77
2023/06/07 11:19:24;;;;;;;7.60;3.30;;;;;;;;;;5038286;28;20454;-78
2023/06/07 11:22:07;;;;;;;6.22;3.10;;;;;;;;;;5039708;28;20435;-78
2023/06/07 11:24:38;;;;;;;7.28;3.40;;;;;;;;;;5038520;28;20427;-80
2023/06/07 11:27:13;;;;;;;6.68;3.28;;;;;;;;;;5042515;28;20436;-80
2023/06/07 11:29:53;;;;;;;6.63;3.10;;;;;;;;;;5046921;28;20436;-81
2023/06/07 11:32:27;;;;;;;8.60;3.00;;;;;;;;;;5040098;28;20443;-78
2023/06/07 11:35:02;;;;;;;8.57;3.10;;;;;;;;;;5048297;28;20431;-79
2023/06/07 11:37:30;;;;;;;4.68;2.90;;;;;;;;;;5021238;28;20446;-81
2023/06/07 11:40:04;;;;;;;7.93;2.95;;;;;;;;;;5038505;28;20424;-77
2023/06/07 11:42:32;;;;;;;9.25;3.15;;;;;;;;;;5042293;28;20444;-76
2023/06/07 11:45:07;;;;;;;6.30;3.00;;;;;;;;;;5041086;28;20442;-79
2023/06/07 11:47:35;;;;;;;7.57;3.40;;;;;;;;;;5041016;28;20443;-79
2023/06/07 11:50:08;;;;;;;5.35;2.80;;;;;;;;;;5042168;28;20431;-79
2023/06/07 11:52:39;;;;;;;7.20;2.92;;;;;;;;;;5037930;28;20859;-78
2023/06/07 11:55:12;;;;;;;5.95;2.80;;;;;;;;;;5032894;28;20465;-77
2023/06/07 11:57:41;;;;;;;5.60;3.00;;;;;;;;;;5034983;28;20502;-79
2023/06/07 12:00:17;;;;;;;8.95;3.10;;;;;;;;;;5041164;28;20454;-79
2023/06/07 12:02:45;;;;;;;6.75;2.92;;;;;;;;;;5038108;28;20424;-80
2023/06/07 12:05:13;;;;;;;5.82;2.90;;;;;;;;;;5047481;28;20434;-79
2023/06/07 12:07:53;;;;;;;9.88;3.20;;;;;;;;;;5039956;28;20849;-77
2023/06/07 12:10:25;;;;;;;8.57;3.15;;;;;;;;;;5044498;28;20427;-79
2023/06/07 12:13:07;;;;;;;7.57;3.03;;;;;;;;;;5039046;28;20462;-78
2023/06/07 12:15:46;;;;;;;7.17;3.00;;;;;;;;;;5046898;28;20438;-78
2023/06/07 12:18:19;;;;;;;6.53;3.17;;;;;;;;;;5029366;28;20423;-79
2023/06/07 12:21:02;;;;;;;6.93;3.00;;;;;;;;;;5040586;28;20438;-78
2023/06/07 12:23:36;;;;;;;5.65;2.95;;;;;;;;;;5042013;28;20453;-81
2023/06/07 12:26:07;;;;;;;6.40;3.03;;;;;;;;;;5037886;28;20431;-81
2023/06/07 12:28:35;;;;;;;7.03;2.90;;;;;;;;;;5040007;28;21002;-79
2023/06/07 12:31:16;;;;;;;5.90;2.95;;;;;;;;;;5043343;28;20430;-81
2023/06/07 12:33:55;;;;;;;5.88;3.15;;;;;;;;;;5034517;28;20428;-81
2023/06/07 12:36:23;;;;;;;9.10;3.10;;;;;;;;;;5037259;28;20432;-83
2023/06/07 12:38:58;;;;;;;5.57;2.90;;;;;;;;;;5037984;28;20431;-80
2023/06/07 12:41:28;;;;;;;6.43;3.10;;;;;;;;;;5041443;28;20432;-82
2023/06/07 12:43:56;;;;;;;7.03;3.03;;;;;;;;;;5034855;28;20433;-79
2023/06/07 12:46:25;;;;;;;7.30;3.40;;;;;;;;;;5041825;28;20435;-82
2023/06/07 12:48:55;;;;;;;8.65;3.53;;;;;;;;;;5040338;28;21007;-79
2023/06/07 12:51:23;;;;;;;13.95;8.70;;;;;;;;;;5041681;28;20419;-82
2023/06/07 12:53:51;;;;;;;22.50;13.45;;;;;;;;;;5041816;28;22034;-80
2023/06/07 12:56:19;;;;;;;6.22;3.25;;;;;;;;;;5035886;28;20434;-79
2023/06/07 12:58:47;;;;;;;6.10;3.23;;;;;;;;;;5046248;28;20428;-79
2023/06/07 13:01:15;;;;;;;6.07;3.10;;;;;;;;;;5035988;28;21277;-81
2023/06/07 13:03:50;;;;;;;6.68;3.13;;;;;;;;;;5045108;28;21058;-81
2023/06/07 13:06:23;;;;;;;6.68;3.20;;;;;;;;;;5044659;28;20721;-83
2023/06/07 13:09:05;;;;;;;7.03;3.35;;;;;;;;;;5035840;28;21046;-80
2023/06/07 13:11:33;;;;;;;7.83;3.53;;;;;;;;;;5040377;28;20426;-81
2023/06/07 13:14:06;;;;;;;7.30;3.30;;;;;;;;;;5042315;28;20427;-81
2023/06/07 13:16:39;;;;;;;8.23;3.30;;;;;;;;;;5035584;28;20437;-80
2023/06/07 13:19:13;;;;;;;6.78;3.50;;;;;;;;;;5034320;28;20459;-82
2023/06/07 13:21:46;;;;;;;8.13;3.50;;;;;;;;;;5037127;28;20426;-82
2023/06/07 13:24:14;;;;;;;7.65;3.55;;;;;;;;;;5040837;28;20431;-81
2023/06/07 13:26:47;;;;;;;8.35;3.42;;;;;;;;;;5027928;28;20427;-81
2023/06/07 13:29:15;;;;;;;8.13;3.65;;;;;;;;;;5040197;28;20420;-82
2023/06/07 13:31:42;;;;;;;7.63;3.60;;;;;;;;;;5035643;28;20427;-79
2023/06/07 13:34:10;;;;;;;6.22;3.17;;;;;;;;;;5041427;28;20419;-83
2023/06/07 13:36:39;;;;;;;6.53;3.40;;;;;;;;;;5038984;28;20439;-80
2023/06/07 13:39:07;;;;;;;7.72;3.70;;;;;;;;;;5041396;28;20431;-81
2023/06/07 13:41:38;;;;;;;9.63;4.00;;;;;;;;;;5037041;28;20430;-82
2023/06/07 13:44:11;;;;;;;6.72;3.40;;;;;;;;;;5038734;28;20444;-84
2023/06/07 13:46:38;;;;;;;7.65;3.47;;;;;;;;;;5042686;28;20455;-82
2023/06/07 13:49:06;;;;;;;7.55;3.53;;;;;;;;;;5047526;28;21335;-81
2023/06/07 13:51:41;;;;;;;9.25;3.90;;;;;;;;;;5037801;28;20426;-81
2023/06/07 13:54:14;;;;;;;9.90;4.20;;;;;;;;;;5038443;28;21583;-80
2023/06/07 13:56:47;;;;;;;9.93;4.13;;;;;;;;;;5036802;28;20972;-83
2023/06/07 13:59:15;;;;;;;8.40;3.90;;;;;;;;;;5039625;28;20432;-78
2023/06/07 14:01:43;;;;;;;7.75;4.10;;;;;;;;;;5037273;28;20446;-80
2023/06/07 14:04:16;;;;;;;7.85;3.70;;;;;;;;;;5034894;28;21021;-80
2023/06/07 14:06:50;;;;;;;9.45;4.20;;;;;;;;;;5038562;28;21080;-79
2023/06/07 14:09:19;;;;;;;8.17;4.20;;;;;;;;;;5035716;28;20424;-79
2023/06/07 14:11:52;;;;;;;8.35;4.07;;;;;;;;;;5038268;28;20431;-79
2023/06/07 14:14:20;;;;;;;7.28;3.97;;;;;;;;;;5043198;28;20434;-83
2023/06/07 14:16:49;;;;;;;9.63;4.45;;;;;;;;;;5050386;28;20427;-80
2023/06/07 14:19:17;;;;;;;8.75;3.95;;;;;;;;;;5048492;28;20420;-76
2023/06/07 14:21:45;;;;;;;7.45;4.00;;;;;;;;;;5049303;28;20432;-78
2023/06/07 14:24:14;;;;;;;8.05;3.75;;;;;;;;;;5045444;28;20426;-81
2023/06/07 14:26:42;;;;;;;7.90;4.10;;;;;;;;;;5050489;28;20432;-79
2023/06/07 14:29:09;;;;;;;10.52;4.40;;;;;;;;;;5062444;28;20432;-76
2023/06/07 14:31:38;;;;;;;8.93;4.03;;;;;;;;;;5049789;28;20424;-78
2023/06/07 14:34:10;;;;;;;8.73;4.07;;;;;;;;;;5049888;28;20494;-76
2023/06/07 14:36:44;;;;;;;8.55;4.30;;;;;;;;;;5061860;28;20435;-76
2023/06/07 14:39:13;;;;;;;7.28;3.80;;;;;;;;;;5054954;28;20421;-77
2023/06/07 14:41:41;;;;;;;8.05;4.07;;;;;;;;;;5053656;28;20424;-78
2023/06/07 14:44:09;;;;;;;11.67;4.10;;;;;;;;;;5060059;28;20431;-77
2023/06/07 14:46:37;;;;;;;8.50;3.70;;;;;;;;;;5060812;28;20921;-77
2023/06/07 14:49:05;;;;;;;8.45;3.30;;;;;;;;;;5063765;28;20429;-76
2023/06/07 14:51:37;;;;;;;7.40;3.22;;;;;;;;;;5056562;28;20969;-77
2023/06/07 14:54:06;;;;;;;8.85;4.15;;;;;;;;;;5051774;28;20429;-76
2023/06/07 14:56:40;;;;;;;8.80;4.30;;;;;;;;;;5056516;28;20427;-77
2023/06/07 14:59:08;;;;;;;9.55;3.70;;;;;;;;;;5053884;28;20427;-77